Terminal Aerodrome Forecast
Issued by NWS

Home | Current Version | Previous Version | Text Only | Print | Product List | Glossary On
Versions: 1 2 3 4 5 6 7 8 9 10 11 12 13 14 15 16 17 18 19 20 21 22 23 24 25
449
FTUS43 KBIS 270326 AAB
TAFJMS
TAF AMD
KJMS 270326Z 2703/2724 VRB03KT P6SM OVC026
     FM271100 03005KT P6SM OVC025
     FM271700 07010KT P6SM OVC005=

USA.gov is the U.S. government's official web portal to all federal, state and local government web resources and services.